createdAt,value
2022-08-16T00:01:10.522Z,41.20
2022-08-16T00:04:01.879Z,41.28
2022-08-16T00:06:53.714Z,40.50
2022-08-16T00:09:42.861Z,40.45
2022-08-16T00:12:32.156Z,42.17
2022-08-16T00:15:24.740Z,40.80
2022-08-16T00:18:33.544Z,42.75
2022-08-16T00:21:23.327Z,42.88
2022-08-16T00:24:12.755Z,43.97
2022-08-16T00:27:01.713Z,43.80
2022-08-16T00:30:00.595Z,43.75
2022-08-16T00:33:00.186Z,43.90
2022-08-16T00:35:48.641Z,43.95
2022-08-16T00:38:43.242Z,44.53
2022-08-16T00:41:33.170Z,48.00
2022-08-16T00:44:31.883Z,52.00
2022-08-16T00:47:22.606Z,49.38
2022-08-16T00:50:12.320Z,47.92
2022-08-16T00:53:01.260Z,46.15
2022-08-16T00:55:56.117Z,46.38
2022-08-16T00:58:47.432Z,47.90
2022-08-16T01:01:36.060Z,47.58
2022-08-16T01:04:29.986Z,48.15
2022-08-16T01:07:18.946Z,48.90
2022-08-16T01:10:16.474Z,49.42
2022-08-16T01:13:12.110Z,49.95
2022-08-16T01:16:03.895Z,48.72
2022-08-16T01:19:08.862Z,50.00
2022-08-16T01:22:47.700Z,50.22
2022-08-16T01:25:19.115Z,51.30
2022-08-16T01:28:19.831Z,51.20
2022-08-16T01:31:10.769Z,54.92
2022-08-16T01:33:59.373Z,53.13
2022-08-16T01:36:48.257Z,52.53
2022-08-16T01:39:47.599Z,53.55
2022-08-16T01:42:37.604Z,52.70
2022-08-16T01:45:39.806Z,53.22
2022-08-16T01:48:32.634Z,52.03
2022-08-16T01:51:25.660Z,52.70
2022-08-16T01:54:15.359Z,51.42
2022-08-16T01:57:13.216Z,52.40
2022-08-16T02:00:10.521Z,52.72
2022-08-16T02:03:08.366Z,53.58
2022-08-16T02:06:01.066Z,52.80
2022-08-16T02:08:51.198Z,54.58
2022-08-16T02:11:47.764Z,53.78
2022-08-16T02:14:38.318Z,53.90
2022-08-16T02:17:28.644Z,53.65
2022-08-16T02:20:19.896Z,53.92
2022-08-16T02:23:17.221Z,54.40
2022-08-16T02:26:06.702Z,54.13
2022-08-16T02:28:56.753Z,55.40
2022-08-16T02:32:03.332Z,57.08
2022-08-16T02:34:56.555Z,56.55
2022-08-16T02:37:53.048Z,56.80
2022-08-16T02:40:44.750Z,58.85
2022-08-16T02:43:35.230Z,59.15
2022-08-16T02:46:33.322Z,60.22
2022-08-16T02:49:59.168Z,61.83
2022-08-16T02:52:34.249Z,62.58
2022-08-16T02:55:41.185Z,62.75
2022-08-16T02:58:32.696Z,63.33
2022-08-16T03:01:33.663Z,65.10
2022-08-16T03:04:50.562Z,63.42
2022-08-16T03:07:50.816Z,63.47
2022-08-16T03:10:40.666Z,65.78
2022-08-16T03:13:29.393Z,67.32
2022-08-16T03:16:38.023Z,69.07
2022-08-16T03:19:47.024Z,69.43
2022-08-16T03:22:36.795Z,68.40
2022-08-16T03:25:40.907Z,67.85
2022-08-16T03:28:33.319Z,70.95
2022-08-16T03:31:22.064Z,69.78
2022-08-16T03:34:11.341Z,70.72
2022-08-16T03:37:02.332Z,70.53
2022-08-16T03:39:56.594Z,69.57
2022-08-16T03:43:19.150Z,70.32
2022-08-16T03:46:02.206Z,68.70
2022-08-16T03:48:56.962Z,68.93
2022-08-16T03:51:45.539Z,69.43
2022-08-16T03:54:53.736Z,69.45
2022-08-16T03:57:52.358Z,70.10
2022-08-16T04:00:44.837Z,70.93
2022-08-16T04:03:37.630Z,70.43
2022-08-16T04:06:26.558Z,70.60
2022-08-16T04:09:15.936Z,69.28
2022-08-16T04:12:11.046Z,70.75
2022-08-16T04:15:17.265Z,72.10
2022-08-16T04:18:24.166Z,71.30
2022-08-16T04:21:14.938Z,70.25
2022-08-16T04:24:18.014Z,71.63
2022-08-16T04:27:09.080Z,69.95
2022-08-16T04:30:03.052Z,70.93
2022-08-16T04:32:55.759Z,70.93
2022-08-16T04:35:49.545Z,71.35
2022-08-16T04:38:38.655Z,72.03
2022-08-16T04:41:32.852Z,72.95
2022-08-16T04:44:32.726Z,75.60
2022-08-16T04:47:36.812Z,73.90
2022-08-16T04:50:33.085Z,73.22
2022-08-16T04:53:41.727Z,71.35
2022-08-16T04:56:31.119Z,69.88
2022-08-16T04:59:19.495Z,69.47
2022-08-16T05:02:41.917Z,68.05
2022-08-16T05:05:17.874Z,66.65
2022-08-16T05:08:29.424Z,64.00
2022-08-16T05:11:22.559Z,64.75
2022-08-16T05:14:11.550Z,62.45
2022-08-16T05:17:09.545Z,61.65
2022-08-16T05:20:00.433Z,62.42
2022-08-16T05:22:57.582Z,59.65
2022-08-16T05:25:48.257Z,60.83
2022-08-16T05:28:40.183Z,59.42
2022-08-16T05:31:31.217Z,59.50
2022-08-16T05:34:22.471Z,60.28
2022-08-16T05:37:16.124Z,60.67
2022-08-16T05:40:07.947Z,63.70
2022-08-16T05:42:57.487Z,66.03
2022-08-16T05:45:50.960Z,67.93
2022-08-16T05:48:39.690Z,69.22
2022-08-16T05:51:38.181Z,70.80
2022-08-16T05:54:29.810Z,72.55
2022-08-16T05:57:23.141Z,73.15
2022-08-16T06:00:22.336Z,72.75
2022-08-16T06:03:15.683Z,72.78
2022-08-16T06:06:28.117Z,74.00
2022-08-16T06:09:19.861Z,71.93
2022-08-16T06:12:09.386Z,70.60
2022-08-16T06:15:01.812Z,71.70
2022-08-16T06:17:52.743Z,69.93
2022-08-16T06:20:55.262Z,69.93
2022-08-16T06:23:45.596Z,70.35
2022-08-16T06:26:37.460Z,68.72
2022-08-16T06:29:34.647Z,67.57
2022-08-16T06:32:27.316Z,65.97
2022-08-16T06:35:18.802Z,64.00
2022-08-16T06:38:32.048Z,62.90
2022-08-16T06:41:20.387Z,64.10
2022-08-16T06:44:20.643Z,63.13
2022-08-16T06:47:17.182Z,60.75
2022-08-16T06:50:07.630Z,58.78
2022-08-16T06:53:08.522Z,58.40
2022-08-16T06:56:14.676Z,57.05
2022-08-16T06:59:48.654Z,55.22
2022-08-16T07:02:51.409Z,53.20
2022-08-16T07:05:41.961Z,53.65
2022-08-16T07:08:37.873Z,50.30
2022-08-16T07:11:47.970Z,49.78
2022-08-16T07:14:48.000Z,48.35
2022-08-16T07:17:39.014Z,47.55
2022-08-16T07:20:43.583Z,46.33
2022-08-16T07:23:39.120Z,43.53
2022-08-16T07:26:31.731Z,44.17
2022-08-16T07:29:20.059Z,41.72
2022-08-16T07:32:10.836Z,40.10
2022-08-16T07:34:59.540Z,40.15
2022-08-16T07:37:48.579Z,39.17
2022-08-16T07:41:01.980Z,37.72
2022-08-16T07:43:56.660Z,41.88
2022-08-16T07:46:47.294Z,39.95
2022-08-16T07:49:52.863Z,37.38
2022-08-16T07:52:50.289Z,35.08
2022-08-16T07:55:45.912Z,32.13
2022-08-16T07:58:43.342Z,30.58
2022-08-16T08:01:38.629Z,31.75
2022-08-16T08:04:32.476Z,31.08
2022-08-16T08:07:27.680Z,32.10
2022-08-16T08:10:29.166Z,31.58
2022-08-16T08:13:20.197Z,29.50
2022-08-16T08:16:29.492Z,27.55
2022-08-16T08:19:21.329Z,27.50
2022-08-16T08:22:19.340Z,25.98
2022-08-16T08:25:16.291Z,23.77
2022-08-16T08:28:05.542Z,22.52
2022-08-16T08:31:03.876Z,22.77
2022-08-16T08:34:00.849Z,21.33
2022-08-16T08:36:55.618Z,20.70
2022-08-16T08:40:14.057Z,19.48
2022-08-16T08:43:12.646Z,18.88
2022-08-16T08:46:21.224Z,18.55
2022-08-16T08:49:11.466Z,19.17
2022-08-16T08:52:07.985Z,19.30
2022-08-16T08:54:56.978Z,18.98
2022-08-16T08:57:47.630Z,17.83
2022-08-16T09:00:54.863Z,17.85
2022-08-16T09:03:49.968Z,17.20
2022-08-16T09:06:43.709Z,16.75
2022-08-16T09:09:41.037Z,16.23
2022-08-16T09:12:36.408Z,16.83
2022-08-16T09:15:32.978Z,15.60
2022-08-16T09:18:24.987Z,15.57
2022-08-16T09:21:16.676Z,16.83
2022-08-16T09:24:10.073Z,15.43
2022-08-16T09:27:03.622Z,14.48
2022-08-16T09:29:59.779Z,16.13
2022-08-16T09:32:54.851Z,15.60
2022-08-16T09:35:43.329Z,14.95
2022-08-16T09:38:32.929Z,14.77
2022-08-16T09:41:21.326Z,14.63
2022-08-16T09:45:09.580Z,12.85
2022-08-16T09:47:23.532Z,12.05
2022-08-16T09:50:13.870Z,11.73
2022-08-16T09:53:16.735Z,12.85
2022-08-16T09:56:11.325Z,12.73
2022-08-16T09:59:04.977Z,11.48
2022-08-16T10:01:57.772Z,12.45
2022-08-16T10:04:52.928Z,12.30
2022-08-16T10:07:45.405Z,11.13
2022-08-16T10:10:34.383Z,11.85
2022-08-16T10:13:21.779Z,11.77
2022-08-16T10:19:06.475Z,11.18
2022-08-16T10:21:56.622Z,10.88
2022-08-16T10:24:56.074Z,11.38
2022-08-16T10:27:53.340Z,11.05
2022-08-16T10:30:45.664Z,11.45
2022-08-16T10:33:35.344Z,10.98
2022-08-16T10:36:38.834Z,11.07
2022-08-16T10:39:41.147Z,12.27
2022-08-16T10:42:30.898Z,10.65
2022-08-16T10:45:20.326Z,9.85
2022-08-16T10:48:27.251Z,11.00
2022-08-16T10:51:17.295Z,9.60
2022-08-16T10:54:08.436Z,10.25
2022-08-16T10:57:17.031Z,9.73
2022-08-16T11:00:21.732Z,10.27
2022-08-16T11:06:20.176Z,9.73
2022-08-16T11:09:25.256Z,10.43
2022-08-16T11:12:14.970Z,11.38
2022-08-16T11:15:12.029Z,10.57
2022-08-16T11:21:09.583Z,11.23
2022-08-16T11:24:42.489Z,11.55
2022-08-16T11:27:35.390Z,10.50
2022-08-16T11:30:28.434Z,11.55
2022-08-16T11:36:36.767Z,11.40
2022-08-16T11:39:27.214Z,11.85
2022-08-16T11:42:23.073Z,12.48
2022-08-16T11:45:17.836Z,11.75
2022-08-16T11:48:08.785Z,12.32
2022-08-16T11:50:58.570Z,10.90
2022-08-16T11:53:47.136Z,10.88
2022-08-16T11:56:51.896Z,11.88
2022-08-16T11:59:41.708Z,11.55
2022-08-16T12:02:31.894Z,10.63
2022-08-16T12:05:21.596Z,12.20
2022-08-16T12:08:12.665Z,11.27
2022-08-16T12:11:02.425Z,11.02
2022-08-16T12:13:53.315Z,10.43
2022-08-16T12:16:48.614Z,11.02
2022-08-16T12:19:44.217Z,10.57
2022-08-16T12:22:33.994Z,11.00
2022-08-16T12:25:27.839Z,10.35
2022-08-16T12:28:16.912Z,10.23
2022-08-16T12:31:27.214Z,10.45
2022-08-16T12:34:28.683Z,11.27
2022-08-16T12:37:17.767Z,9.57
2022-08-16T12:40:23.813Z,9.45
2022-08-16T12:43:14.525Z,9.68
2022-08-16T12:46:03.737Z,9.50
2022-08-16T12:48:58.209Z,9.18
2022-08-16T12:51:58.873Z,9.38
2022-08-16T12:54:54.903Z,9.20
2022-08-16T12:57:44.565Z,9.80
2022-08-16T13:00:48.544Z,9.57
2022-08-16T13:03:40.631Z,10.82
2022-08-16T13:06:33.699Z,11.95
2022-08-16T13:09:26.665Z,11.95
2022-08-16T13:12:20.109Z,11.07
2022-08-16T13:15:12.632Z,11.57
2022-08-16T13:18:01.117Z,11.35
2022-08-16T13:20:59.671Z,11.88
2022-08-16T13:23:49.468Z,12.43
2022-08-16T13:26:39.643Z,11.88
2022-08-16T13:29:43.661Z,12.15
2022-08-16T13:32:40.654Z,14.15
2022-08-16T13:35:34.512Z,13.93
2022-08-16T13:38:26.089Z,12.27
2022-08-16T13:41:19.466Z,12.20
2022-08-16T13:44:09.458Z,11.35
2022-08-16T13:46:58.126Z,11.20
2022-08-16T13:49:47.142Z,11.18
2022-08-16T13:52:39.965Z,10.68
2022-08-16T13:55:29.109Z,11.10
2022-08-16T13:58:37.367Z,11.13
2022-08-16T14:01:28.016Z,11.50
2022-08-16T14:04:26.139Z,10.30
2022-08-16T14:07:19.952Z,11.40
2022-08-16T14:10:15.326Z,10.45
2022-08-16T14:13:03.950Z,10.10
2022-08-16T14:15:55.793Z,9.35
2022-08-16T14:18:44.189Z,10.35
2022-08-16T14:21:35.856Z,11.00
2022-08-16T14:24:30.109Z,10.23
2022-08-16T14:27:21.349Z,10.40
2022-08-16T14:30:15.609Z,10.50
2022-08-16T14:33:06.225Z,10.30
2022-08-16T14:35:55.161Z,10.18
2022-08-16T14:38:43.571Z,10.38
2022-08-16T14:41:32.067Z,10.73
2022-08-16T14:44:20.535Z,10.30
2022-08-16T14:47:09.348Z,10.63
2022-08-16T14:50:01.837Z,11.45
2022-08-16T14:52:56.594Z,12.07
2022-08-16T14:55:46.248Z,12.20
2022-08-16T14:58:38.121Z,12.40
2022-08-16T15:01:57.441Z,11.55
2022-08-16T15:04:40.086Z,10.95
2022-08-16T15:07:40.143Z,12.20
2022-08-16T15:10:29.351Z,12.15
2022-08-16T15:13:21.599Z,11.52
2022-08-16T15:16:10.095Z,11.57
2022-08-16T15:18:59.474Z,10.60
2022-08-16T15:21:53.694Z,11.95
2022-08-16T15:24:44.306Z,11.20
2022-08-16T15:27:36.782Z,10.50
2022-08-16T15:30:56.707Z,11.15
2022-08-16T15:33:43.306Z,12.63
2022-08-16T15:36:32.153Z,11.75
2022-08-16T15:39:26.955Z,11.65
2022-08-16T15:42:27.397Z,11.73
2022-08-16T15:45:38.098Z,11.00
2022-08-16T15:48:30.413Z,11.05
2022-08-16T15:51:18.921Z,10.75
2022-08-16T15:54:29.387Z,9.73
2022-08-16T15:57:17.209Z,10.20
2022-08-16T16:00:26.584Z,10.00
2022-08-16T16:03:17.404Z,9.38
2022-08-16T16:06:06.009Z,9.85
2022-08-16T16:08:54.635Z,8.95
2022-08-16T16:11:43.264Z,9.15
2022-08-16T16:14:32.006Z,10.40
2022-08-16T16:17:21.957Z,10.48
2022-08-16T16:20:14.878Z,10.07
2022-08-16T16:23:10.569Z,9.32
2022-08-16T16:26:05.789Z,10.10
2022-08-16T16:29:07.902Z,10.00
2022-08-16T16:32:05.878Z,10.25
2022-08-16T16:34:59.026Z,9.70
2022-08-16T16:37:48.766Z,10.63
2022-08-16T16:40:46.560Z,10.35
2022-08-16T16:43:45.192Z,9.48
2022-08-16T16:46:42.487Z,11.45
2022-08-16T16:49:33.850Z,11.88
2022-08-16T16:52:31.354Z,10.77
2022-08-16T16:55:33.355Z,10.52
2022-08-16T16:58:53.978Z,9.77
2022-08-16T17:01:59.384Z,10.07
2022-08-16T17:04:50.157Z,10.98
2022-08-16T17:07:40.633Z,10.02
2022-08-16T17:13:39.230Z,9.77
2022-08-16T17:16:33.017Z,10.57
2022-08-16T17:19:23.868Z,11.38
2022-08-16T17:22:15.518Z,10.45
2022-08-16T17:25:07.588Z,9.40
2022-08-16T17:27:56.700Z,9.57
2022-08-16T17:30:47.939Z,9.38
2022-08-16T17:33:54.812Z,11.02
2022-08-16T17:36:52.692Z,12.48
2022-08-16T17:39:26.047Z,10.73
2022-08-16T17:39:59.737Z,11.70
2022-08-16T17:42:53.577Z,13.75
2022-08-16T17:45:43.422Z,14.73
2022-08-16T17:48:32.555Z,13.43
2022-08-16T17:51:21.444Z,12.20
2022-08-16T17:54:20.248Z,12.40
2022-08-16T17:57:18.274Z,12.00
2022-08-16T18:00:15.840Z,10.95
2022-08-16T18:03:15.082Z,10.93
2022-08-16T18:06:15.813Z,11.20
2022-08-16T18:09:05.169Z,11.63
2022-08-16T18:11:54.995Z,11.57
2022-08-16T18:14:52.268Z,11.05
2022-08-16T18:17:43.988Z,11.07
2022-08-16T18:20:50.101Z,10.20
2022-08-16T18:23:38.907Z,11.43
2022-08-16T18:26:27.434Z,12.00
2022-08-16T18:29:16.332Z,11.77
2022-08-16T18:32:05.682Z,11.38
2022-08-16T18:34:55.491Z,11.27
2022-08-16T18:37:44.028Z,11.32
2022-08-16T18:40:33.249Z,12.35
2022-08-16T18:44:00.898Z,12.13
2022-08-16T18:46:32.379Z,11.85
2022-08-16T18:49:21.012Z,12.00
2022-08-16T18:52:25.538Z,12.20
2022-08-16T18:55:15.044Z,12.35
2022-08-16T18:58:04.725Z,13.48
2022-08-16T19:00:56.353Z,14.02
2022-08-16T19:03:45.581Z,14.75
2022-08-16T19:06:33.977Z,15.38
2022-08-16T19:09:23.789Z,15.50
2022-08-16T19:12:12.311Z,16.85
2022-08-16T19:15:07.255Z,18.00
2022-08-16T19:17:56.498Z,17.10
2022-08-16T19:20:45.818Z,17.08
2022-08-16T19:23:37.276Z,17.48
2022-08-16T19:26:27.171Z,16.98
2022-08-16T19:29:16.153Z,18.27
2022-08-16T19:32:05.852Z,16.45
2022-08-16T19:34:56.619Z,17.13
2022-08-16T19:37:46.143Z,16.73
2022-08-16T19:40:37.637Z,17.38
2022-08-16T19:43:28.301Z,16.42
2022-08-16T19:46:17.452Z,18.45
2022-08-16T19:49:05.961Z,18.02
2022-08-16T19:51:54.968Z,19.08
2022-08-16T19:54:44.115Z,18.80
2022-08-16T19:57:32.843Z,19.10
2022-08-16T20:00:24.262Z,19.52
2022-08-16T20:03:24.726Z,19.90
2022-08-16T20:06:13.412Z,18.30
2022-08-16T20:09:22.900Z,19.08
2022-08-16T20:12:13.240Z,19.85
2022-08-16T20:15:01.922Z,21.00
2022-08-16T20:17:52.070Z,19.58
2022-08-16T20:20:43.143Z,20.38
2022-08-16T20:23:31.597Z,19.75
2022-08-16T20:26:23.779Z,20.83
2022-08-16T20:29:12.199Z,21.98
2022-08-16T20:32:01.051Z,23.13
2022-08-16T20:34:53.579Z,23.25
2022-08-16T20:37:43.079Z,21.05
2022-08-16T20:40:35.049Z,19.73
2022-08-16T20:43:24.055Z,18.48
2022-08-16T20:46:12.640Z,19.20
2022-08-16T20:49:01.043Z,18.38
2022-08-16T20:51:55.884Z,18.80
2022-08-16T20:54:48.003Z,19.98
2022-08-16T20:57:38.025Z,19.23
2022-08-16T21:00:26.515Z,18.33
2022-08-16T21:03:15.452Z,19.33
2022-08-16T21:06:05.556Z,20.73
2022-08-16T21:08:55.554Z,20.63
2022-08-16T21:11:44.105Z,22.33
2022-08-16T21:14:34.310Z,22.45
2022-08-16T21:17:22.999Z,22.88
2022-08-16T21:20:12.727Z,24.15
2022-08-16T21:23:03.614Z,24.75
2022-08-16T21:25:59.308Z,25.67
2022-08-16T21:28:48.191Z,33.97
2022-08-16T21:31:37.021Z,27.10
2022-08-16T21:34:25.393Z,26.05
2022-08-16T21:37:15.718Z,26.45
2022-08-16T21:40:05.946Z,26.77
2022-08-16T21:42:56.210Z,27.27
2022-08-16T21:45:46.263Z,28.75
2022-08-16T21:48:36.315Z,27.45
2022-08-16T21:51:29.048Z,26.70
2022-08-16T21:54:17.557Z,26.95
2022-08-16T21:57:10.614Z,25.65
2022-08-16T22:00:01.013Z,26.20
2022-08-16T22:02:51.329Z,26.15
2022-08-16T22:05:42.677Z,25.33
2022-08-16T22:08:31.586Z,26.95
2022-08-16T22:11:20.768Z,27.80
2022-08-16T22:14:09.826Z,28.15
2022-08-16T22:16:59.813Z,26.88
2022-08-16T22:19:48.230Z,26.67
2022-08-16T22:22:37.542Z,27.23
2022-08-16T22:25:26.227Z,25.80
2022-08-16T22:28:15.886Z,24.65
2022-08-16T22:31:04.271Z,25.45
2022-08-16T22:33:56.815Z,24.17
2022-08-16T22:36:45.500Z,25.42
2022-08-16T22:39:34.111Z,25.35
2022-08-16T22:42:23.224Z,26.05
2022-08-16T22:45:13.247Z,26.15
2022-08-16T22:48:01.733Z,27.42
2022-08-16T22:50:51.794Z,27.77
2022-08-16T22:53:40.394Z,27.50
2022-08-16T22:56:29.383Z,27.73
2022-08-16T22:59:17.923Z,33.65
2022-08-16T23:02:09.937Z,31.35
2022-08-16T23:04:58.504Z,29.83
2022-08-16T23:07:49.212Z,30.55
2022-08-16T23:10:38.399Z,31.08
2022-08-16T23:13:28.080Z,30.98
2022-08-16T23:16:17.148Z,32.92
2022-08-16T23:19:09.394Z,33.75
2022-08-16T23:21:58.106Z,32.75
2022-08-16T23:24:56.991Z,32.30
2022-08-16T23:27:45.548Z,31.88
2022-08-16T23:30:36.784Z,33.47
2022-08-16T23:33:29.724Z,33.22
2022-08-16T23:36:18.060Z,33.25
2022-08-16T23:39:06.568Z,33.25
2022-08-16T23:41:56.735Z,34.35
2022-08-16T23:44:59.076Z,34.80
2022-08-16T23:47:47.752Z,35.55
2022-08-16T23:50:38.344Z,34.80
2022-08-16T23:53:28.830Z,35.72
2022-08-16T23:56:20.416Z,37.75
2022-08-16T23:59:10.275Z,40.00
